Time;durP1;ratioP1;P1;durP2;ratioP2;P2;SDS_P1;SDS_P2;PMS_P1;PMS_P2;Temp;Humidity;BMP_temperature;BMP_pressure;BME280_temperature;BME280_humidity;BME280_pressure;Samples;Min_cycle;Max_cycle;Signal;HPM_P1;HPM_P2
2022/08/13 00:00:32;;;;;;;5.85;3.13;;;;;;;22.37;41.64;101410.03;6214447;23;20079;-71
2022/08/13 00:02:59;;;;;;;4.88;3.03;;;;;;;22.29;42.64;101405.94;6214805;23;20012;-71
2022/08/13 00:05:25;;;;;;;8.05;3.40;;;;;;;22.23;41.59;101412.63;6216109;23;20047;-69
2022/08/13 00:07:51;;;;;;;5.45;2.92;;;;;;;22.20;42.53;101420.66;6215892;23;20035;-70
2022/08/13 00:10:30;;;;;;;15.38;3.67;;;;;;;22.24;41.66;101417.03;6216203;23;20000;-68
2022/08/13 00:12:57;;;;;;;9.95;3.38;;;;;;;22.23;41.64;101412.63;6216606;23;20051;-71
2022/08/13 00:15:26;;;;;;;9.35;3.67;;;;;;;22.32;41.95;101415.59;6217100;23;20092;-69
2022/08/13 00:17:51;;;;;;;17.17;4.35;;;;;;;22.28;42.12;101411.75;6216444;23;19997;-70
2022/08/13 00:20:23;;;;;;;12.05;4.10;;;;;;;22.24;41.33;101407.94;6215636;23;20035;-70
2022/08/13 00:22:48;;;;;;;9.82;3.90;;;;;;;22.15;42.20;101412.41;6215326;23;20000;-70
2022/08/13 00:25:15;;;;;;;9.55;3.50;;;;;;;22.19;41.73;101416.25;6215972;23;20011;-70
2022/08/13 00:27:47;;;;;;;8.43;3.40;;;;;;;22.20;42.00;101415.13;6215432;23;20332;-69
2022/08/13 00:30:16;;;;;;;7.53;3.25;;;;;;;22.18;41.87;101411.81;6215183;23;20016;-70
2022/08/13 00:32:45;;;;;;;7.80;3.40;;;;;;;22.18;42.06;101414.59;6189179;23;20406;-68
2022/08/13 00:35:12;;;;;;;4.75;3.10;;;;;;;22.13;42.53;101412.69;6189458;23;20005;-69
2022/08/13 00:37:41;;;;;;;10.25;3.08;;;;;;;22.07;41.97;101411.94;6215758;23;20413;-70
2022/08/13 00:40:09;;;;;;;10.13;3.63;;;;;;;22.08;42.51;101419.09;6215450;23;20000;-68
2022/08/13 00:42:38;;;;;;;6.80;3.30;;;;;;;22.02;42.52;101414.72;6214479;23;20329;-69
2022/08/13 00:45:08;;;;;;;8.27;3.15;;;;;;;22.02;42.62;101414.72;6189131;23;20011;-70
2022/08/13 00:50:18;;;;;;;5.75;3.03;;;;;;;21.88;42.67;101419.28;6215606;23;20020;-69
2022/08/13 00:52:44;;;;;;;6.32;3.13;;;;;;;21.84;42.53;101420.94;6188669;23;20001;-69
2022/08/13 00:55:16;;;;;;;5.90;3.33;;;;;;;21.81;43.18;101414.06;6215884;23;20434;-70
2022/08/13 00:57:44;;;;;;;5.22;2.97;;;;;;;21.81;43.19;101416.00;6214289;23;20361;-70
2022/08/13 01:00:15;;;;;;;11.18;3.72;;;;;;;21.67;43.15;101418.59;6189118;23;20087;-69
2022/08/13 01:02:41;;;;;;;;;;;;;;;21.92;41.73;101421.16;6211883;23;20067;-69
2022/08/13 01:05:07;;;;;;;5.20;3.00;;;;;;;21.69;43.11;101419.13;6214660;23;19912;-70
2022/08/13 01:07:34;;;;;;;8.35;3.25;;;;;;;21.66;43.20;101420.50;6188335;23;20096;-69
2022/08/13 01:09:59;;;;;;;6.88;3.65;;;;;;;21.51;43.54;101424.19;6215654;23;20075;-71
2022/08/13 01:12:27;;;;;;;7.15;3.30;;;;;;;21.56;43.58;101415.91;6188454;23;20042;-71
2022/08/13 01:14:55;;;;;;;5.22;3.50;;;;;;;21.52;43.71;101419.53;6214894;23;20019;-71
2022/08/13 01:17:23;;;;;;;6.53;3.50;;;;;;;21.51;44.06;101413.16;6215760;23;20009;-70
2022/08/13 01:19:49;;;;;;;9.23;3.75;;;;;;;21.37;44.13;101415.72;6215026;23;20448;-69
2022/08/13 01:22:16;;;;;;;6.05;3.60;;;;;;;21.34;44.47;101418.22;6214995;23;20001;-70
2022/08/13 01:24:42;;;;;;;9.88;3.50;;;;;;;21.25;45.09;101409.72;6215235;23;20004;-69
2022/08/13 01:27:10;;;;;;;14.23;3.90;;;;;;;21.23;45.25;101420.22;6214427;23;20366;-69
2022/08/13 01:29:36;;;;;;;8.20;4.22;;;;;;;21.06;45.83;101426.03;6211423;23;20375;-70
2022/08/13 01:32:03;;;;;;;8.25;4.53;;;;;;;21.02;45.80;101420.28;6214924;23;20001;-69
2022/08/13 01:34:31;;;;;;;7.85;4.07;;;;;;;21.05;45.92;101425.22;6214926;23;20004;-68
2022/08/13 01:36:57;;;;;;;10.82;4.38;;;;;;;21.03;45.61;101421.94;6188715;23;20012;-69
2022/08/13 01:39:23;;;;;;;10.02;4.28;;;;;;;20.95;45.36;101425.25;6215007;23;20009;-70
2022/08/13 01:41:49;;;;;;;8.55;4.00;;;;;;;20.97;45.41;101425.84;6215040;23;20425;-70
2022/08/13 01:44:15;;;;;;;7.93;4.30;;;;;;;21.00;45.36;101424.41;6214999;23;20013;-69
2022/08/13 01:52:10;;;;;;;8.82;4.10;;;;;;;20.88;45.63;101411.81;6214600;23;20078;-69
2022/08/13 01:54:37;;;;;;;8.05;4.00;;;;;;;20.91;45.32;101417.84;6214612;23;20004;-70
2022/08/13 01:57:06;;;;;;;5.72;3.70;;;;;;;20.95;45.32;101417.00;6215319;23;20008;-70
2022/08/13 01:59:36;;;;;;;11.73;3.85;;;;;;;20.96;45.05;101420.59;6213770;23;20059;-71
2022/08/13 02:02:04;;;;;;;6.18;3.65;;;;;;;21.01;45.29;101424.13;6210751;23;20461;-69
2022/08/13 02:04:30;;;;;;;6.55;3.80;;;;;;;20.89;45.55;101416.22;6214624;23;20111;-69
2022/08/13 02:06:59;;;;;;;11.57;3.80;;;;;;;20.93;45.53;101410.97;6214424;23;20434;-70
2022/08/13 02:09:25;;;;;;;9.30;4.15;;;;;;;20.84;46.01;101409.91;6215173;23;20001;-71
2022/08/13 02:11:51;;;;;;;9.43;4.20;;;;;;;20.82;45.83;101410.19;6214857;23;20079;-69
2022/08/13 02:14:16;;;;;;;7.28;4.15;;;;;;;20.76;45.59;101414.06;6214294;23;20039;-71
2022/08/13 02:16:42;;;;;;;11.75;4.43;;;;;;;20.76;45.55;101415.97;6214381;23;20062;-70
2022/08/13 02:19:08;;;;;;;7.53;3.90;;;;;;;20.76;45.80;101404.97;6214651;23;20032;-68
2022/08/13 02:21:38;;;;;;;15.52;4.53;;;;;;;20.68;46.31;101417.38;6214758;23;20024;-70
2022/08/13 02:24:09;;;;;;;14.15;4.63;;;;;;;20.58;46.47;101420.97;6215166;23;20001;-71
2022/08/13 02:26:37;;;;;;;12.88;4.60;;;;;;;20.59;47.01;101416.28;6187971;23;20051;-69
2022/08/13 02:29:04;;;;;;;21.23;5.03;;;;;;;20.56;47.00;101412.16;6188322;23;20062;-70
2022/08/13 02:31:31;;;;;;;30.70;5.55;;;;;;;20.52;46.67;101417.41;6188333;23;20361;-70
2022/08/13 02:33:57;;;;;;;13.88;4.55;;;;;;;20.46;46.98;101415.75;6214175;23;20019;-69
2022/08/13 02:36:24;;;;;;;10.40;4.28;;;;;;;20.39;46.84;101412.47;6214380;23;20005;-70
2022/08/13 02:39:05;;;;;;;9.00;4.30;;;;;;;20.44;46.71;101419.88;6214311;23;20009;-70
2022/08/13 02:41:43;;;;;;;;;;;;;;;20.67;44.96;101419.31;6215514;23;20430;-70
2022/08/13 02:44:12;;;;;;;11.65;4.57;;;;;;;20.40;46.53;101407.81;6214987;23;19904;-69
2022/08/13 02:46:39;;;;;;;10.38;4.30;;;;;;;20.35;47.11;101417.72;6214487;23;20008;-70
2022/08/13 02:49:05;;;;;;;7.47;4.55;;;;;;;20.33;46.93;101406.16;6214290;23;20031;-68
2022/08/13 02:51:31;;;;;;;10.05;4.63;;;;;;;20.25;46.81;101411.41;6214047;23;20434;-69
2022/08/13 02:53:59;;;;;;;11.00;4.63;;;;;;;20.28;47.38;101417.16;6214208;23;20017;-70
2022/08/13 02:56:26;;;;;;;10.95;4.40;;;;;;;20.23;47.58;101416.34;6214778;23;20005;-68
2022/08/13 02:58:51;;;;;;;9.77;4.25;;;;;;;20.21;47.07;101419.38;6214088;23;20032;-70
2022/08/13 03:01:17;;;;;;;7.55;4.40;;;;;;;20.10;47.43;101423.22;6210549;23;20048;-70
2022/08/13 03:03:43;;;;;;;12.85;4.70;;;;;;;20.12;47.45;101418.28;6213744;23;20425;-68
2022/08/13 03:06:08;;;;;;;7.93;4.22;;;;;;;20.08;47.61;101418.00;6214696;23;20004;-71
2022/08/13 03:08:35;;;;;;;11.73;4.60;;;;;;;20.09;47.49;101413.34;6214778;23;20028;-68
2022/08/13 03:11:00;;;;;;;10.82;4.63;;;;;;;20.07;47.64;101421.03;6214373;23;20005;-69
2022/08/13 03:13:29;;;;;;;9.48;4.47;;;;;;;20.05;47.77;101423.22;6214742;23;20009;-70
2022/08/13 03:15:56;;;;;;;9.07;4.30;;;;;;;19.98;48.33;101421.56;6214428;23;20087;-71
2022/08/13 03:18:23;;;;;;;10.63;4.97;;;;;;;19.93;48.12;101418.00;6214283;23;20036;-69
2022/08/13 03:20:49;;;;;;;12.40;4.50;;;;;;;19.90;48.10;101413.91;6213609;23;20010;-68
2022/08/13 03:23:15;;;;;;;14.27;4.60;;;;;;;19.87;48.66;101422.69;6214683;23;20439;-70
2022/08/13 03:25:40;;;;;;;9.27;4.75;;;;;;;19.86;48.67;101421.03;6214383;23;20005;-70
2022/08/13 03:28:06;;;;;;;12.95;4.80;;;;;;;19.74;48.50;101413.00;6214657;23;20509;-69
2022/08/13 03:30:34;;;;;;;8.57;4.50;;;;;;;19.75;48.52;101420.16;6214713;23;20005;-69
2022/08/13 03:33:05;;;;;;;10.82;4.50;;;;;;;19.74;48.15;101420.44;6214451;23;20005;-70
2022/08/13 03:35:31;;;;;;;12.40;4.70;;;;;;;19.61;48.88;101419.88;6214087;23;20410;-70
2022/08/13 03:37:56;;;;;;;11.98;5.10;;;;;;;19.58;49.50;101420.41;6187380;23;20071;-68
2022/08/13 03:40:25;;;;;;;11.18;5.05;;;;;;;19.52;49.51;101417.91;6188023;23;20071;-67
2022/08/13 03:42:52;;;;;;;17.70;5.10;;;;;;;19.56;49.26;101425.34;6213756;23;20015;-69
2022/08/13 03:45:21;;;;;;;17.08;5.05;;;;;;;19.57;49.31;101416.03;6214113;23;20334;-70
2022/08/13 03:47:46;;;;;;;16.45;5.32;;;;;;;19.52;49.54;101415.19;6214239;23;20008;-72
2022/08/13 03:50:14;;;;;;;16.40;5.57;;;;;;;19.58;49.02;101406.69;6214587;23;20373;-72
2022/08/13 03:52:40;;;;;;;14.38;4.88;;;;;;;19.56;49.30;101416.28;6214129;23;20050;-71
2022/08/13 03:55:13;;;;;;;11.48;5.20;;;;;;;19.56;49.22;101417.09;6214496;23;20008;-71
2022/08/13 03:57:41;;;;;;;22.90;5.38;;;;;;;19.50;49.12;101417.38;6214311;23;20012;-72
2022/08/13 04:00:11;;;;;;;17.63;4.68;;;;;;;19.44;49.00;101409.13;6214518;23;20084;-72
2022/08/13 04:02:40;;;;;;;10.27;4.95;;;;;;;19.54;48.95;101410.25;6210788;23;20017;-71
2022/08/13 04:05:08;;;;;;;11.65;4.68;;;;;;;19.46;48.93;101412.44;6215836;23;20016;-72
2022/08/13 04:07:33;;;;;;;11.40;5.18;;;;;;;19.49;49.20;101416.56;6215789;23;20015;-72
2022/08/13 04:09:59;;;;;;;12.75;5.00;;;;;;;19.48;48.98;101417.66;6215927;23;20008;-71
2022/08/13 04:12:24;;;;;;;12.85;4.93;;;;;;;19.39;49.19;101411.88;6216277;23;20366;-71
2022/08/13 04:14:50;;;;;;;8.95;4.68;;;;;;;19.39;49.27;101406.38;6215922;23;20011;-72
2022/08/13 04:17:15;;;;;;;9.55;4.43;;;;;;;19.41;49.41;101404.16;6215626;23;20004;-71
2022/08/13 04:19:41;;;;;;;11.68;4.43;;;;;;;19.44;48.90;101406.38;6215887;23;20002;-72
2022/08/13 04:22:10;;;;;;;9.45;4.65;;;;;;;19.42;49.20;101416.00;6215627;23;20402;-72
2022/08/13 04:24:36;;;;;;;8.15;4.47;;;;;;;19.38;49.23;101414.88;6216158;23;20008;-72
2022/08/13 04:27:02;;;;;;;12.75;4.60;;;;;;;19.44;48.98;101428.31;6215408;23;20005;-72
2022/08/13 04:29:58;;;;;;;11.13;4.68;;;;;;;19.44;48.78;101425.59;6215685;23;20071;-71
2022/08/13 04:32:42;;;;;;;9.82;4.40;;;;;;;19.42;48.81;101421.47;6215124;23;20080;-72
2022/08/13 04:35:09;;;;;;;9.80;4.65;;;;;;;19.36;49.09;101422.56;6215502;23;20004;-72
2022/08/13 04:37:34;;;;;;;13.80;5.18;;;;;;;19.35;49.13;101423.66;6215640;23;20548;-72
2022/08/13 04:39:59;;;;;;;10.55;4.90;;;;;;;19.36;49.63;101414.34;6215574;23;20011;-70
2022/08/13 04:42:25;;;;;;;12.90;4.80;;;;;;;19.29;50.17;101423.66;6215993;23;20005;-72
2022/08/13 04:44:50;;;;;;;7.80;4.43;;;;;;;19.36;49.56;101417.06;6215123;23;20055;-70
2022/08/13 04:47:17;;;;;;;8.85;5.22;;;;;;;19.31;49.60;101412.41;6215787;23;20005;-71
2022/08/13 04:49:43;;;;;;;14.50;4.95;;;;;;;19.27;49.59;101423.06;6214770;23;20008;-73
2022/08/13 04:52:09;;;;;;;9.80;4.97;;;;;;;19.21;50.12;101428.81;6215024;23;20015;-72
2022/08/13 04:54:34;;;;;;;13.95;4.80;;;;;;;19.17;49.94;101427.72;6215626;23;20038;-70
2022/08/13 04:56:59;;;;;;;11.70;4.90;;;;;;;19.23;50.05;101430.19;6215623;23;20487;-70
2022/08/13 04:59:25;;;;;;;9.20;4.68;;;;;;;19.24;50.27;101429.09;6215621;23;20005;-71
2022/08/13 05:01:50;;;;;;;17.83;5.40;;;;;;;19.13;50.13;101430.19;6211462;23;20041;-71
2022/08/13 05:04:17;;;;;;;12.43;4.90;;;;;;;19.11;50.51;101427.69;6215489;23;20062;-70
2022/08/13 05:06:42;;;;;;;10.13;5.10;;;;;;;19.22;50.32;101427.72;6214630;23;20005;-71
2022/08/13 05:09:08;;;;;;;8.93;4.70;;;;;;;19.18;50.89;101430.19;6215769;23;20078;-70
2022/08/13 05:11:33;;;;;;;10.45;4.90;;;;;;;19.19;50.06;101429.09;6215503;23;20009;-71
2022/08/13 05:13:58;;;;;;;15.25;5.60;;;;;;;19.24;49.92;101442.00;6214897;23;20001;-71
2022/08/13 05:16:24;;;;;;;9.00;4.95;;;;;;;19.15;50.73;101427.97;6215598;23;20303;-71
2022/08/13 05:18:54;;;;;;;10.40;5.55;;;;;;;19.24;50.31;101434.59;6215270;23;20008;-71
2022/08/13 05:21:22;;;;;;;13.40;5.07;;;;;;;19.24;51.01;101431.03;6215597;23;20322;-71
2022/08/13 05:23:53;;;;;;;12.00;5.20;;;;;;;19.22;50.77;101433.19;6215307;23;20004;-71
2022/08/13 05:26:22;;;;;;;13.82;5.70;;;;;;;19.13;51.54;101438.41;6215492;23;20008;-70
2022/08/13 05:28:49;;;;;;;10.63;5.60;;;;;;;19.17;50.55;101436.75;6215223;23;20004;-71
2022/08/13 05:31:17;;;;;;;9.20;5.03;;;;;;;19.23;50.56;101446.66;6215493;23;20000;-71
2022/08/13 05:33:43;;;;;;;12.23;5.25;;;;;;;19.27;50.63;101441.47;6188787;23;20426;-70
2022/08/13 05:36:09;;;;;;;11.65;4.85;;;;;;;19.29;50.64;101442.00;6187599;23;20005;-70
2022/08/13 05:38:35;;;;;;;12.57;4.85;;;;;;;19.38;50.09;101429.41;6215475;23;20004;-70
2022/08/13 05:41:04;;;;;;;7.72;4.50;;;;;;;19.43;50.29;101434.09;6215059;23;20032;-70
2022/08/13 05:43:33;;;;;;;14.00;5.32;;;;;;;19.45;50.72;101431.91;6214938;23;20087;-71
2022/08/13 05:46:03;;;;;;;10.32;5.47;;;;;;;19.44;50.69;101441.22;6214942;23;20005;-70
2022/08/13 05:48:31;;;;;;;6.90;4.75;;;;;;;19.50;51.00;101437.41;6215110;23;20017;-71
2022/08/13 05:51:00;;;;;;;8.32;5.18;;;;;;;19.51;50.96;101438.25;6214679;23;20362;-72
2022/08/13 05:53:27;;;;;;;7.07;4.50;;;;;;;19.57;51.06;101434.41;6214350;23;20095;-71
2022/08/13 05:55:53;;;;;;;10.45;4.82;;;;;;;19.54;51.28;101441.25;6215011;23;20008;-70
2022/08/13 05:58:20;;;;;;;12.35;5.13;;;;;;;19.60;50.85;101439.38;6188067;23;20317;-70
2022/08/13 06:03:29;;;;;;;6.00;4.43;;;;;;;19.70;50.58;101430.31;6214624;23;20074;-71
2022/08/13 06:05:56;;;;;;;7.38;4.63;;;;;;;19.70;51.20;101438.53;6213910;23;20408;-71
2022/08/13 06:08:27;;;;;;;9.65;4.53;;;;;;;19.85;50.93;101432.28;6213862;23;20005;-71
2022/08/13 06:10:52;;;;;;;11.57;5.00;;;;;;;19.82;51.46;101439.13;6214861;23;20001;-71
2022/08/13 06:13:18;;;;;;;12.82;4.13;;;;;;;19.96;50.57;101439.44;6214733;23;20008;-71
2022/08/13 06:15:44;;;;;;;10.65;4.70;;;;;;;19.99;51.41;101438.91;6215019;23;20036;-71
2022/08/13 06:18:12;;;;;;;10.63;4.40;;;;;;;20.10;50.58;101437.78;6214802;23;20036;-71
2022/08/13 06:20:40;;;;;;;9.13;4.47;;;;;;;20.12;50.82;101429.25;6215087;23;20009;-71
2022/08/13 06:23:12;;;;;;;9.88;4.35;;;;;;;20.19;50.53;101429.81;6214176;23;20406;-71
2022/08/13 06:25:37;;;;;;;9.30;3.83;;;;;;;20.29;50.62;101437.22;6214098;23;20000;-71
2022/08/13 06:28:04;;;;;;;12.90;4.20;;;;;;;20.40;49.72;101429.81;6214628;23;20014;-72
2022/08/13 06:30:30;;;;;;;5.85;4.03;;;;;;;20.48;49.63;101429.22;6214793;23;20080;-71
2022/08/13 06:33:01;;;;;;;8.65;4.10;;;;;;;20.50;49.15;101435.25;6214742;23;20004;-71
2022/08/13 06:35:27;;;;;;;8.00;3.90;;;;;;;20.61;48.99;101434.16;6214943;23;20011;-71
2022/08/13 06:37:52;;;;;;;7.18;3.80;;;;;;;20.65;49.15;101438.03;6214097;23;20036;-71
2022/08/13 06:40:23;;;;;;;8.48;3.83;;;;;;;20.76;49.28;101438.81;6214868;23;20063;-71
2022/08/13 06:42:51;;;;;;;7.45;4.10;;;;;;;20.83;48.85;101433.03;6214603;23;20007;-71
2022/08/13 06:45:20;;;;;;;8.85;3.63;;;;;;;20.98;48.26;101440.41;6188095;23;20509;-71
2022/08/13 06:47:47;;;;;;;9.07;3.95;;;;;;;21.06;48.18;101437.91;6214086;23;20008;-71
2022/08/13 06:50:13;;;;;;;8.60;4.30;;;;;;;21.09;48.04;101435.66;6214865;23;20012;-71
2022/08/13 06:52:39;;;;;;;7.80;3.92;;;;;;;21.16;47.94;101433.44;6214812;23;20005;-71
2022/08/13 06:55:07;;;;;;;9.02;4.30;;;;;;;21.20;47.69;101442.78;6214052;23;20433;-71
2022/08/13 06:57:35;;;;;;;8.43;3.25;;;;;;;21.31;47.86;101444.38;6214504;23;20013;-71
2022/08/13 07:00:01;;;;;;;9.32;4.22;;;;;;;21.33;47.23;101436.69;6214565;23;20415;-71
2022/08/13 07:02:29;;;;;;;7.95;3.92;;;;;;;21.38;47.45;101439.38;6183568;23;20017;-68
2022/08/13 07:04:55;;;;;;;12.82;4.00;;;;;;;21.40;47.11;101445.44;6187605;23;20031;-70
2022/08/13 07:07:21;;;;;;;5.68;3.80;;;;;;;21.43;47.36;101446.78;6214616;23;20004;-69
2022/08/13 07:09:48;;;;;;;6.57;3.83;;;;;;;21.50;47.03;101436.31;6214235;23;20004;-71
2022/08/13 07:12:14;;;;;;;7.65;3.22;;;;;;;21.62;47.41;101454.41;6213645;23;20004;-71
2022/08/13 07:14:44;;;;;;;6.00;3.35;;;;;;;21.68;47.17;101448.63;6214869;23;20019;-71
2022/08/13 07:17:10;;;;;;;8.40;3.55;;;;;;;21.78;46.65;101439.44;6214474;23;20032;-71
2022/08/13 07:19:37;;;;;;;7.43;3.20;;;;;;;21.84;46.63;101446.56;6214707;23;20000;-71
2022/08/13 07:22:04;;;;;;;5.82;3.05;;;;;;;21.91;46.48;101446.25;6214450;23;20008;-70
2022/08/13 07:24:29;;;;;;;6.22;3.50;;;;;;;21.94;45.86;101438.22;6213716;23;20000;-74
2022/08/13 07:26:59;;;;;;;15.45;3.67;;;;;;;21.99;46.76;101445.63;6214407;23;20005;-70
2022/08/13 07:29:26;;;;;;;8.52;3.35;;;;;;;22.06;45.34;101443.38;6214706;23;20417;-71
2022/08/13 07:31:54;;;;;;;9.32;3.13;;;;;;;22.16;45.74;101447.13;6214059;23;20012;-70
2022/08/13 07:34:21;;;;;;;6.13;2.90;;;;;;;22.23;45.25;101445.69;6214679;23;20004;-70
2022/08/13 07:36:49;;;;;;;8.68;3.00;;;;;;;22.29;45.39;101452.00;6215728;23;20012;-70
2022/08/13 07:39:16;;;;;;;7.20;2.90;;;;;;;22.35;45.02;101450.84;6216296;23;20418;-70
2022/08/13 07:41:45;;;;;;;5.40;2.60;;;;;;;22.42;45.59;101454.09;6216175;23;20039;-70
2022/08/13 07:44:17;;;;;;;7.05;3.03;;;;;;;22.51;45.37;101453.47;6215922;23;20008;-70
2022/08/13 07:46:45;;;;;;;6.57;2.97;;;;;;;22.57;44.74;101447.63;6216382;23;20015;-71
2022/08/13 07:49:12;;;;;;;7.68;2.92;;;;;;;22.57;44.58;101449.53;6215852;23;20000;-70
2022/08/13 07:51:40;;;;;;;10.82;2.75;;;;;;;22.67;45.09;101451.38;6216443;23;20082;-69
2022/08/13 07:54:07;;;;;;;10.70;3.22;;;;;;;22.70;44.70;101446.09;6215847;23;20080;-69
2022/08/13 07:56:33;;;;;;;5.57;2.58;;;;;;;22.79;44.93;101449.84;6215909;23;20055;-70
2022/08/13 07:59:02;;;;;;;4.53;2.60;;;;;;;22.85;44.19;101455.31;6214827;23;20445;-72
2022/08/13 08:01:30;;;;;;;3.85;2.55;;;;;;;22.89;44.19;101453.59;6211415;23;20019;-72
2022/08/13 08:04:01;;;;;;;3.70;3.00;;;;;;;22.94;44.08;101448.84;6215647;23;20059;-73
2022/08/13 08:06:27;;;;;;;;;;;;;;;23.03;44.38;101460.06;6190243;23;20000;-71
2022/08/13 08:08:53;;;;;;;5.18;2.80;;;;;;;23.08;43.87;101457.22;6216298;23;19911;-71
2022/08/13 08:14:06;;;;;;;5.80;2.53;;;;;;;23.20;43.37;101456.84;6215743;23;20078;-72
2022/08/13 08:16:36;;;;;;;6.55;2.60;;;;;;;23.31;43.19;101457.53;6214293;23;20051;-70
2022/08/13 08:19:02;;;;;;;7.38;2.30;;;;;;;23.41;42.84;101454.63;6214759;23;20143;-70
2022/08/13 08:21:28;;;;;;;6.85;1.95;;;;;;;23.51;42.50;101459.22;6215442;23;20000;-70
2022/08/13 08:23:59;;;;;;;7.80;2.33;;;;;;;23.58;43.16;101451.34;6216176;23;20041;-69
2022/08/13 08:26:26;;;;;;;3.50;2.10;;;;;;;23.59;42.05;101464.06;6216109;23;20009;-70
2022/08/13 08:28:54;;;;;;;8.10;2.38;;;;;;;23.64;41.97;101463.16;6216161;23;20473;-72
2022/08/13 08:31:19;;;;;;;5.65;2.28;;;;;;;23.67;41.67;101457.03;6215842;23;20004;-72
2022/08/13 08:33:47;;;;;;;3.67;2.30;;;;;;;23.74;42.27;101463.00;6216023;23;20015;-70
2022/08/13 08:36:12;;;;;;;8.98;2.40;;;;;;;23.78;41.58;101458.53;6214830;23;20004;-70
2022/08/13 08:44:23;;;;;;;7.50;2.30;;;;;;;23.96;41.27;101465.19;6215473;23;20331;-73
2022/08/13 08:46:51;;;;;;;2.90;2.15;;;;;;;24.04;40.68;101463.69;6215919;23;20087;-72
2022/08/13 08:49:17;;;;;;;8.75;2.10;;;;;;;24.11;41.15;101464.13;6215388;23;20004;-72
2022/08/13 08:51:43;;;;;;;8.23;2.30;;;;;;;24.24;40.99;101459.75;6215865;23;20008;-71
2022/08/13 08:54:09;;;;;;;6.13;1.77;;;;;;;24.33;40.57;101463.44;6214948;23;20011;-71
2022/08/13 08:56:35;;;;;;;3.97;2.10;;;;;;;24.36;41.14;101462.03;6215421;23;20012;-71
2022/08/13 08:59:02;;;;;;;3.88;2.00;;;;;;;24.49;40.65;101465.94;6215536;23;20009;-70
2022/08/13 09:01:33;;;;;;;4.93;1.83;;;;;;;24.54;40.42;101457.56;6211623;23;20016;-70
2022/08/13 09:04:02;;;;;;;4.03;2.00;;;;;;;24.63;40.01;101454.94;6214957;23;20426;-71
2022/08/13 09:06:28;;;;;;;5.93;1.95;;;;;;;24.73;40.08;101458.34;6215681;23;20004;-70
2022/08/13 09:08:54;;;;;;;7.70;2.00;;;;;;;24.84;39.80;101460.91;6215745;23;20011;-72
2022/08/13 09:11:20;;;;;;;5.90;1.80;;;;;;;24.94;40.32;101455.97;6214499;23;20011;-70
2022/08/13 09:13:48;;;;;;;6.05;1.80;;;;;;;25.04;40.17;101454.13;6215274;23;20005;-71
2022/08/13 09:16:14;;;;;;;2.35;1.92;;;;;;;24.99;39.14;101449.50;6215036;23;20032;-69
2022/08/13 09:18:40;;;;;;;3.00;2.08;;;;;;;25.05;39.54;101442.75;6214786;23;20028;-68
2022/08/13 09:21:06;;;;;;;6.63;2.10;;;;;;;25.09;39.54;101448.47;6188210;23;20000;-68
2022/08/13 09:23:33;;;;;;;6.30;2.50;;;;;;;25.22;38.60;101439.31;6211704;23;20004;-67
2022/08/13 09:25:58;;;;;;;2.83;1.70;;;;;;;25.30;38.69;101440.56;6213614;23;20032;-68
2022/08/13 09:28:24;;;;;;;5.70;1.77;;;;;;;25.36;37.77;101444.06;6215577;23;20008;-68
2022/08/13 09:30:54;;;;;;;5.25;1.63;;;;;;;25.43;38.30;101439.72;6215553;23;20009;-68
2022/08/13 09:33:23;;;;;;;9.87;2.20;;;;;;;25.56;38.58;101443.59;6214941;23;20008;-68
2022/08/13 09:35:51;;;;;;;7.82;2.17;;;;;;;25.60;38.17;101439.06;6215468;23;20438;-68
2022/08/13 09:38:20;;;;;;;6.03;1.77;;;;;;;25.71;38.63;101441.59;6214775;23;20307;-68
2022/08/13 09:40:54;;;;;;;5.00;1.67;;;;;;;25.88;38.59;101443.66;6214558;23;20303;-68
2022/08/13 09:43:27;;;;;;;5.60;1.73;;;;;;;25.86;37.50;101440.41;6215102;23;20091;-69
2022/08/13 09:45:52;;;;;;;6.90;2.03;;;;;;;25.94;38.15;101439.66;6213773;23;20239;-68
2022/08/13 09:48:18;;;;;;;8.25;2.00;;;;;;;26.02;37.98;101430.59;6213918;23;20008;-69
2022/08/13 09:50:43;;;;;;;3.08;1.60;;;;;;;26.09;37.58;101430.16;6215348;23;20000;-68
2022/08/13 09:53:10;;;;;;;4.10;1.43;;;;;;;26.15;37.08;101429.72;6215048;23;20015;-71
2022/08/13 09:55:37;;;;;;;3.53;1.80;;;;;;;26.28;36.57;101433.53;6215300;23;20250;-68
2022/08/13 09:58:02;;;;;;;2.80;1.35;;;;;;;26.38;35.92;101429.69;6214974;23;20067;-71
2022/08/13 10:00:31;;;;;;;3.58;1.75;;;;;;;26.58;35.62;101422.75;6212989;23;20422;-72
2022/08/13 10:02:59;;;;;;;3.55;1.60;;;;;;;26.62;35.71;101423.75;6212711;23;20078;-70
2022/08/13 10:05:26;;;;;;;4.05;1.60;;;;;;;26.68;34.86;101427.22;6214889;23;20015;-67
2022/08/13 10:07:52;;;;;;;8.77;1.42;;;;;;;26.55;33.73;101426.16;6214626;23;20007;-71
2022/08/13 10:10:18;;;;;;;4.47;1.50;;;;;;;26.70;34.33;101413.84;6214930;23;20438;-68
2022/08/13 10:12:44;;;;;;;2.17;1.30;;;;;;;26.84;34.21;101416.50;6215141;23;20004;-71
2022/08/13 10:15:12;;;;;;;2.75;1.23;;;;;;;26.92;33.76;101410.16;6214858;23;20417;-69
2022/08/13 10:17:48;;;;;;;5.05;1.20;;;;;;;26.96;33.49;101404.75;6187598;23;20456;-71
2022/08/13 10:20:25;;;;;;;3.03;1.33;;;;;;;27.11;33.03;101400.72;6213566;23;20008;-68
2022/08/13 10:22:52;;;;;;;2.72;1.20;;;;;;;27.02;31.72;101409.84;6214788;23;20062;-67
2022/08/13 10:25:17;;;;;;;5.90;1.27;;;;;;;27.01;31.77;101401.81;6213354;23;20480;-70
2022/08/13 10:27:44;;;;;;;3.33;1.30;;;;;;;27.07;32.29;101403.34;6213802;23;20008;-66
2022/08/13 10:30:10;;;;;;;4.15;1.23;;;;;;;27.23;32.12;101406.44;6214696;23;20005;-68
2022/08/13 10:32:35;;;;;;;3.30;1.30;;;;;;;27.35;32.18;101401.09;6214770;23;20062;-67
2022/08/13 10:35:02;;;;;;;6.57;1.13;;;;;;;27.49;32.00;101403.72;6214609;23;20416;-69
2022/08/13 10:37:30;;;;;;;3.45;1.30;;;;;;;27.67;31.80;101407.28;6186023;23;20016;-68
2022/08/13 10:39:57;;;;;;;3.90;1.38;;;;;;;27.87;30.92;101402.19;6214564;23;20019;-69
2022/08/13 10:42:22;;;;;;;1.02;0.85;;;;;;;28.03;30.36;101402.53;6213997;23;20059;-68
2022/08/13 10:44:51;;;;;;;4.53;1.00;;;;;;;28.14;28.93;101400.22;6214329;23;20000;-69
2022/08/13 10:47:19;;;;;;;1.67;0.93;;;;;;;28.17;29.95;101396.78;6213651;23;20004;-69
2022/08/13 10:49:45;;;;;;;2.97;1.02;;;;;;;28.19;29.82;101391.72;6187730;23;20476;-69
2022/08/13 10:52:10;;;;;;;3.70;1.17;;;;;;;28.28;30.40;101392.50;6214400;23;20091;-69
2022/08/13 10:54:36;;;;;;;3.20;1.20;;;;;;;28.44;31.31;101396.38;6214890;23;20384;-69
2022/08/13 10:57:01;;;;;;;3.33;1.20;;;;;;;28.47;29.44;101389.28;6214277;23;20228;-68
2022/08/13 10:59:26;;;;;;;1.15;0.95;;;;;;;28.54;28.95;101395.16;6214532;23;20346;-69
2022/08/13 11:01:52;;;;;;;3.53;1.20;;;;;;;28.63;29.61;101387.59;6209111;23;20469;-68
2022/08/13 11:04:17;;;;;;;3.00;1.40;;;;;;;28.61;29.05;101386.31;6213218;23;20079;-69
2022/08/13 11:06:45;;;;;;;3.45;1.15;;;;;;;28.51;28.33;101387.47;6214644;23;20011;-69
2022/08/13 11:09:10;;;;;;;6.43;0.95;;;;;;;28.50;29.11;101391.41;6214008;23;20005;-68
2022/08/13 11:11:36;;;;;;;2.00;1.30;;;;;;;28.53;29.61;101384.34;6215689;23;20034;-69
2022/08/13 11:14:02;;;;;;;1.48;1.00;;;;;;;28.67;29.15;101387.78;6216000;23;20028;-68
2022/08/13 11:18:58;;;;;;;2.85;1.20;;;;;;;29.01;28.80;101385.13;6216990;23;20005;-68
2022/08/13 11:21:25;;;;;;;5.32;1.13;;;;;;;29.17;28.89;101383.34;6215665;23;20089;-67
2022/08/13 11:23:51;;;;;;;4.78;1.00;;;;;;;29.14;27.79;101373.69;6216072;23;20004;-70
2022/08/13 11:26:17;;;;;;;3.55;1.38;;;;;;;29.26;27.57;101369.38;6215784;23;20016;-68
2022/08/13 11:28:42;;;;;;;1.67;1.08;;;;;;;29.08;27.70;101369.47;6216741;23;20009;-69
2022/08/13 11:31:07;;;;;;;4.32;1.20;;;;;;;28.97;27.07;101362.66;6216244;23;20001;-70
2022/08/13 11:33:33;;;;;;;4.00;1.00;;;;;;;29.07;28.41;101362.28;6216202;23;20428;-68
2022/08/13 11:35:58;;;;;;;2.10;1.13;;;;;;;29.24;28.89;101363.31;6216590;23;20008;-70
2022/08/13 11:38:23;;;;;;;2.17;0.85;;;;;;;29.33;28.55;101359.31;6216330;23;20005;-68
2022/08/13 11:40:52;;;;;;;5.22;1.00;;;;;;;29.42;28.09;101366.78;6216601;23;20004;-68
2022/08/13 11:43:18;;;;;;;3.67;1.00;;;;;;;29.56;27.14;101358.13;6215296;23;20014;-67
2022/08/13 11:45:44;;;;;;;3.08;1.02;;;;;;;29.73;28.44;101357.97;6216445;23;20036;-70